sensor_id;sensor_type;location;lat;lon;timestamp;pressure;altitude;pressure_sealevel;temperature;humidity
23473;BME280;11909;52.516;13.564;2023-11-21T00:01:11;100050.66;;;7.38;100.00
23473;BME280;11909;52.516;13.564;2023-11-21T00:03:39;100061.31;;;7.34;100.00
23473;BME280;11909;52.516;13.564;2023-11-21T00:06:07;100059.69;;;7.28;100.00
23473;BME280;11909;52.516;13.564;2023-11-21T00:08:36;100064.31;;;7.27;100.00
23473;BME280;11909;52.516;13.564;2023-11-21T00:11:04;100076.34;;;7.21;100.00
23473;BME280;11909;52.516;13.564;2023-11-21T00:13:32;100087.00;;;7.12;100.00
23473;BME280;11909;52.516;13.564;2023-11-21T00:16:02;100091.91;;;7.10;100.00
23473;BME280;11909;52.516;13.564;2023-11-21T00:18:30;100096.81;;;7.03;100.00
23473;BME280;11909;52.516;13.564;2023-11-21T00:20:58;100101.44;;;7.02;100.00
23473;BME280;11909;52.516;13.564;2023-11-21T00:23:26;100102.00;;;6.94;100.00
23473;BME280;11909;52.516;13.564;2023-11-21T00:25:54;100090.25;;;6.94;100.00
23473;BME280;11909;52.516;13.564;2023-11-21T00:28:22;100090.25;;;6.99;100.00
23473;BME280;11909;52.516;13.564;2023-11-21T00:30:50;100095.16;;;6.97;100.00
23473;BME280;11909;52.516;13.564;2023-11-21T00:33:19;100093.53;;;6.96;100.00
23473;BME280;11909;52.516;13.564;2023-11-21T00:35:47;100102.53;;;6.91;100.00
23473;BME280;11909;52.516;13.564;2023-11-21T00:38:15;100104.19;;;6.97;100.00
23473;BME280;11909;52.516;13.564;2023-11-21T00:40:46;100098.72;;;7.02;100.00
23473;BME280;11909;52.516;13.564;2023-11-21T00:43:14;100106.34;;;7.06;100.00
23473;BME280;11909;52.516;13.564;2023-11-21T00:45:42;100109.91;;;7.01;100.00
23473;BME280;11909;52.516;13.564;2023-11-21T00:48:10;100121.66;;;7.01;100.00
23473;BME280;11909;52.516;13.564;2023-11-21T00:50:41;100118.63;;;6.98;100.00
23473;BME280;11909;52.516;13.564;2023-11-21T00:53:09;100125.44;;;6.90;100.00
23473;BME280;11909;52.516;13.564;2023-11-21T00:55:37;100121.91;;;6.84;100.00
23473;BME280;11909;52.516;13.564;2023-11-21T00:58:07;100127.88;;;6.76;100.00
23473;BME280;11909;52.516;13.564;2023-11-21T01:00:34;100149.13;;;6.64;100.00
23473;BME280;11909;52.516;13.564;2023-11-21T01:03:06;100149.94;;;6.59;100.00
23473;BME280;11909;52.516;13.564;2023-11-21T01:05:35;100159.19;;;6.58;100.00
23473;BME280;11909;52.516;13.564;2023-11-21T01:08:04;100157.56;;;6.52;100.00
23473;BME280;11909;52.516;13.564;2023-11-21T01:10:32;100156.72;;;6.51;100.00
23473;BME280;11909;52.516;13.564;2023-11-21T01:13:00;100162.19;;;6.56;100.00
23473;BME280;11909;52.516;13.564;2023-11-21T01:15:28;100164.66;;;6.58;100.00
23473;BME280;11909;52.516;13.564;2023-11-21T01:17:56;100168.47;;;6.52;100.00
23473;BME280;11909;52.516;13.564;2023-11-21T01:20:24;100170.91;;;6.53;100.00
23473;BME280;11909;52.516;13.564;2023-11-21T01:22:53;100179.34;;;6.52;100.00
23473;BME280;11909;52.516;13.564;2023-11-21T01:25:23;100184.81;;;6.52;100.00
23473;BME280;11909;52.516;13.564;2023-11-21T01:27:51;100184.81;;;6.47;100.00
23473;BME280;11909;52.516;13.564;2023-11-21T01:30:19;100186.69;;;6.41;100.00
23473;BME280;11909;52.516;13.564;2023-11-21T01:32:47;100200.78;;;6.32;100.00
23473;BME280;11909;52.516;13.564;2023-11-21T01:35:15;100212.28;;;6.35;100.00
23473;BME280;11909;52.516;13.564;2023-11-21T01:37:43;100199.47;;;6.35;100.00
23473;BME280;11909;52.516;13.564;2023-11-21T01:40:11;100200.53;;;6.34;100.00
23473;BME280;11909;52.516;13.564;2023-11-21T01:42:42;100202.69;;;6.27;100.00
23473;BME280;11909;52.516;13.564;2023-11-21T01:45:12;100209.75;;;6.23;100.00
23473;BME280;11909;52.516;13.564;2023-11-21T01:47:41;100209.72;;;6.17;100.00
23473;BME280;11909;52.516;13.564;2023-11-21T01:50:14;100218.97;;;6.16;100.00
23473;BME280;11909;52.516;13.564;2023-11-21T01:52:45;100210.00;;;6.16;100.00
23473;BME280;11909;52.516;13.564;2023-11-21T01:55:14;100220.59;;;6.12;100.00
23473;BME280;11909;52.516;13.564;2023-11-21T01:57:56;100217.84;;;6.07;100.00
23473;BME280;11909;52.516;13.564;2023-11-21T02:00:24;100231.47;;;6.07;100.00
23473;BME280;11909;52.516;13.564;2023-11-21T02:02:56;100232.78;;;6.05;100.00
23473;BME280;11909;52.516;13.564;2023-11-21T02:05:24;100234.63;;;5.99;100.00
23473;BME280;11909;52.516;13.564;2023-11-21T02:07:52;100241.41;;;5.91;100.00
23473;BME280;11909;52.516;13.564;2023-11-21T02:10:20;100246.31;;;5.89;100.00
23473;BME280;11909;52.516;13.564;2023-11-21T02:12:51;100243.00;;;5.87;100.00
23473;BME280;11909;52.516;13.564;2023-11-21T02:15:20;100239.25;;;5.93;100.00
23473;BME280;11909;52.516;13.564;2023-11-21T02:17:49;100241.63;;;5.84;100.00
23473;BME280;11909;52.516;13.564;2023-11-21T02:20:19;100244.06;;;5.86;100.00
23473;BME280;11909;52.516;13.564;2023-11-21T02:22:52;100254.94;;;5.81;100.00
23473;BME280;11909;52.516;13.564;2023-11-21T02:25:25;100250.56;;;5.80;100.00
23473;BME280;11909;52.516;13.564;2023-11-21T02:27:55;100254.41;;;5.84;100.00
23473;BME280;11909;52.516;13.564;2023-11-21T02:30:23;100256.28;;;5.78;100.00
23473;BME280;11909;52.516;13.564;2023-11-21T02:32:51;100249.47;;;5.76;100.00
23473;BME280;11909;52.516;13.564;2023-11-21T02:35:20;100257.06;;;5.73;100.00
23473;BME280;11909;52.516;13.564;2023-11-21T02:37:48;100262.19;;;5.70;100.00
23473;BME280;11909;52.516;13.564;2023-11-21T02:40:18;100273.66;;;5.72;100.00
23473;BME280;11909;52.516;13.564;2023-11-21T02:42:47;100269.59;;;5.74;100.00
23473;BME280;11909;52.516;13.564;2023-11-21T02:45:18;100277.00;;;5.79;100.00
23473;BME280;11909;52.516;13.564;2023-11-21T02:47:48;100278.69;;;5.85;100.00
23473;BME280;11909;52.516;13.564;2023-11-21T02:50:16;100281.97;;;5.87;100.00
23473;BME280;11909;52.516;13.564;2023-11-21T02:52:45;100287.66;;;5.86;100.00
23473;BME280;11909;52.516;13.564;2023-11-21T02:55:14;100286.56;;;5.87;100.00
23473;BME280;11909;52.516;13.564;2023-11-21T02:57:43;100295.00;;;5.85;100.00
23473;BME280;11909;52.516;13.564;2023-11-21T03:00:11;100304.78;;;5.81;100.00
23473;BME280;11909;52.516;13.564;2023-11-21T03:02:41;100294.16;;;5.80;100.00
23473;BME280;11909;52.516;13.564;2023-11-21T03:05:10;100297.69;;;5.80;100.00
23473;BME280;11909;52.516;13.564;2023-11-21T03:07:39;100290.81;;;5.72;100.00
23473;BME280;11909;52.516;13.564;2023-11-21T03:10:08;100282.09;;;5.70;100.00
23473;BME280;11909;52.516;13.564;2023-11-21T03:12:38;100297.59;;;5.70;100.00
23473;BME280;11909;52.516;13.564;2023-11-21T03:15:08;100300.88;;;5.72;100.00
23473;BME280;11909;52.516;13.564;2023-11-21T03:17:36;100289.16;;;5.66;100.00
23473;BME280;11909;52.516;13.564;2023-11-21T03:20:05;100293.50;;;5.67;100.00
23473;BME280;11909;52.516;13.564;2023-11-21T03:22:37;100303.00;;;5.65;100.00
23473;BME280;11909;52.516;13.564;2023-11-21T03:25:06;100310.09;;;5.66;100.00
23473;BME280;11909;52.516;13.564;2023-11-21T03:27:37;100316.53;;;5.54;100.00
23473;BME280;11909;52.516;13.564;2023-11-21T03:30:09;100323.28;;;5.52;100.00
23473;BME280;11909;52.516;13.564;2023-11-21T03:32:37;100328.03;;;5.62;100.00
23473;BME280;11909;52.516;13.564;2023-11-21T03:35:06;100334.22;;;5.57;100.00
23473;BME280;11909;52.516;13.564;2023-11-21T03:37:34;100339.06;;;5.50;100.00
23473;BME280;11909;52.516;13.564;2023-11-21T03:40:03;100337.66;;;5.47;100.00
23473;BME280;11909;52.516;13.564;2023-11-21T03:42:31;100335.50;;;5.49;100.00
23473;BME280;11909;52.516;13.564;2023-11-21T03:44:59;100338.00;;;5.51;100.00
23473;BME280;11909;52.516;13.564;2023-11-21T03:47:28;100347.59;;;5.58;100.00
23473;BME280;11909;52.516;13.564;2023-11-21T03:49:56;100343.22;;;5.57;100.00
23473;BME280;11909;52.516;13.564;2023-11-21T03:52:25;100345.69;;;5.59;100.00
23473;BME280;11909;52.516;13.564;2023-11-21T03:54:53;100350.84;;;5.55;100.00
23473;BME280;11909;52.516;13.564;2023-11-21T03:57:21;100372.09;;;5.58;100.00
23473;BME280;11909;52.516;13.564;2023-11-21T03:59:49;100370.66;;;5.51;100.00
23473;BME280;11909;52.516;13.564;2023-11-21T04:02:17;100371.91;;;5.43;100.00
23473;BME280;11909;52.516;13.564;2023-11-21T04:04:46;100379.53;;;5.41;100.00
23473;BME280;11909;52.516;13.564;2023-11-21T04:07:14;100372.94;;;5.37;100.00
23473;BME280;11909;52.516;13.564;2023-11-21T04:09:42;100369.91;;;5.33;100.00
23473;BME280;11909;52.516;13.564;2023-11-21T04:12:10;100381.06;;;5.31;100.00
23473;BME280;11909;52.516;13.564;2023-11-21T04:14:38;100383.47;;;5.28;100.00
23473;BME280;11909;52.516;13.564;2023-11-21T04:17:06;100382.88;;;5.26;100.00
23473;BME280;11909;52.516;13.564;2023-11-21T04:19:34;100398.19;;;5.32;100.00
23473;BME280;11909;52.516;13.564;2023-11-21T04:22:04;100398.13;;;5.27;100.00
23473;BME280;11909;52.516;13.564;2023-11-21T04:24:32;100402.34;;;5.17;100.00
23473;BME280;11909;52.516;13.564;2023-11-21T04:26:59;100401.50;;;5.12;100.00
23473;BME280;11909;52.516;13.564;2023-11-21T04:29:29;100408.75;;;5.06;100.00
23473;BME280;11909;52.516;13.564;2023-11-21T04:31:57;100413.69;;;5.09;100.00
23473;BME280;11909;52.516;13.564;2023-11-21T04:34:25;100415.66;;;5.14;100.00
23473;BME280;11909;52.516;13.564;2023-11-21T04:36:53;100423.13;;;5.24;100.00
23473;BME280;11909;52.516;13.564;2023-11-21T04:39:22;100426.38;;;5.21;100.00
23473;BME280;11909;52.516;13.564;2023-11-21T04:41:50;100432.63;;;5.21;100.00
23473;BME280;11909;52.516;13.564;2023-11-21T04:44:18;100434.25;;;5.22;100.00
23473;BME280;11909;52.516;13.564;2023-11-21T04:46:46;100427.69;;;5.18;100.00
23473;BME280;11909;52.516;13.564;2023-11-21T04:49:14;100436.03;;;5.11;100.00
23473;BME280;11909;52.516;13.564;2023-11-21T04:51:42;100429.25;;;5.14;100.00
23473;BME280;11909;52.516;13.564;2023-11-21T04:54:10;100439.31;;;5.13;100.00
23473;BME280;11909;52.516;13.564;2023-11-21T04:56:39;100439.63;;;5.17;100.00
23473;BME280;11909;52.516;13.564;2023-11-21T04:59:08;100442.94;;;5.19;100.00
23473;BME280;11909;52.516;13.564;2023-11-21T05:01:36;100445.81;;;5.12;100.00
23473;BME280;11909;52.516;13.564;2023-11-21T05:04:05;100445.75;;;5.07;100.00
23473;BME280;11909;52.516;13.564;2023-11-21T05:06:35;100456.41;;;5.09;100.00
23473;BME280;11909;52.516;13.564;2023-11-21T05:09:03;100462.03;;;5.02;100.00
23473;BME280;11909;52.516;13.564;2023-11-21T05:11:31;100460.03;;;4.97;100.00
23473;BME280;11909;52.516;13.564;2023-11-21T05:14:00;100467.38;;;4.97;100.00
23473;BME280;11909;52.516;13.564;2023-11-21T05:16:30;100457.94;;;5.05;100.00
23473;BME280;11909;52.516;13.564;2023-11-21T05:18:58;100466.44;;;5.08;100.00
23473;BME280;11909;52.516;13.564;2023-11-21T05:21:27;100472.72;;;5.09;100.00
23473;BME280;11909;52.516;13.564;2023-11-21T05:23:56;100477.00;;;5.05;100.00
23473;BME280;11909;52.516;13.564;2023-11-21T05:26:24;100481.38;;;5.06;100.00
23473;BME280;11909;52.516;13.564;2023-11-21T05:28:52;100477.50;;;5.01;100.00
23473;BME280;11909;52.516;13.564;2023-11-21T05:31:21;100477.25;;;5.03;100.00
23473;BME280;11909;52.516;13.564;2023-11-21T05:33:49;100473.19;;;5.06;100.00
23473;BME280;11909;52.516;13.564;2023-11-21T05:36:17;100470.25;;;5.07;100.00
23473;BME280;11909;52.516;13.564;2023-11-21T05:38:45;100480.22;;;5.01;100.00
23473;BME280;11909;52.516;13.564;2023-11-21T05:41:13;100487.56;;;5.01;100.00
23473;BME280;11909;52.516;13.564;2023-11-21T05:43:41;100477.00;;;5.05;100.00
23473;BME280;11909;52.516;13.564;2023-11-21T05:46:10;100496.31;;;5.03;100.00
23473;BME280;11909;52.516;13.564;2023-11-21T05:48:39;100498.69;;;4.99;100.00
23473;BME280;11909;52.516;13.564;2023-11-21T05:51:08;100507.34;;;4.96;100.00
23473;BME280;11909;52.516;13.564;2023-11-21T05:53:39;100508.19;;;4.97;100.00
23473;BME280;11909;52.516;13.564;2023-11-21T05:56:07;100512.78;;;4.96;100.00
23473;BME280;11909;52.516;13.564;2023-11-21T05:58:35;100512.78;;;4.96;100.00
23473;BME280;11909;52.516;13.564;2023-11-21T06:01:06;100510.06;;;4.96;100.00
23473;BME280;11909;52.516;13.564;2023-11-21T06:03:35;100513.94;;;5.00;100.00
23473;BME280;11909;52.516;13.564;2023-11-21T06:06:05;100517.16;;;4.97;100.00
23473;BME280;11909;52.516;13.564;2023-11-21T06:08:33;100526.38;;;4.96;100.00
23473;BME280;11909;52.516;13.564;2023-11-21T06:11:01;100541.88;;;4.96;100.00
23473;BME280;11909;52.516;13.564;2023-11-21T06:13:29;100547.72;;;4.87;100.00
23473;BME280;11909;52.516;13.564;2023-11-21T06:15:57;100547.06;;;4.97;100.00
23473;BME280;11909;52.516;13.564;2023-11-21T06:18:25;100549.72;;;4.92;100.00
23473;BME280;11909;52.516;13.564;2023-11-21T06:20:53;100560.31;;;4.94;100.00
23473;BME280;11909;52.516;13.564;2023-11-21T06:23:22;100555.16;;;4.92;100.00
23473;BME280;11909;52.516;13.564;2023-11-21T06:25:50;100550.53;;;4.93;100.00
23473;BME280;11909;52.516;13.564;2023-11-21T06:28:18;100560.00;;;4.90;100.00
23473;BME280;11909;52.516;13.564;2023-11-21T06:30:46;100560.59;;;4.92;100.00
23473;BME280;11909;52.516;13.564;2023-11-21T06:33:15;100568.59;;;4.99;100.00
23473;BME280;11909;52.516;13.564;2023-11-21T06:35:43;100572.47;;;5.03;100.00
23473;BME280;11909;52.516;13.564;2023-11-21T06:38:11;100574.69;;;4.89;100.00
23473;BME280;11909;52.516;13.564;2023-11-21T06:40:41;100583.72;;;4.95;100.00
23473;BME280;11909;52.516;13.564;2023-11-21T06:43:08;100588.03;;;4.91;100.00
23473;BME280;11909;52.516;13.564;2023-11-21T06:45:36;100594.03;;;4.93;100.00
23473;BME280;11909;52.516;13.564;2023-11-21T06:48:05;100597.09;;;4.96;100.00
23473;BME280;11909;52.516;13.564;2023-11-21T06:50:32;100595.78;;;4.99;100.00
23473;BME280;11909;52.516;13.564;2023-11-21T06:53:01;100602.63;;;5.01;100.00
23473;BME280;11909;52.516;13.564;2023-11-21T06:55:30;100605.84;;;4.98;100.00
23473;BME280;11909;52.516;13.564;2023-11-21T06:58:00;100605.97;;;4.92;100.00
23473;BME280;11909;52.516;13.564;2023-11-21T07:00:28;100609.38;;;4.99;100.00
23473;BME280;11909;52.516;13.564;2023-11-21T07:02:56;100610.75;;;4.84;100.00
23473;BME280;11909;52.516;13.564;2023-11-21T07:05:24;100609.47;;;4.87;100.00
23473;BME280;11909;52.516;13.564;2023-11-21T07:07:52;100610.09;;;4.77;100.00
23473;BME280;11909;52.516;13.564;2023-11-21T07:10:20;100610.19;;;4.82;100.00
23473;BME280;11909;52.516;13.564;2023-11-21T07:12:48;100615.63;;;4.82;100.00
23473;BME280;11909;52.516;13.564;2023-11-21T07:15:19;100619.91;;;4.78;100.00
23473;BME280;11909;52.516;13.564;2023-11-21T07:17:47;100623.44;;;4.79;100.00
23473;BME280;11909;52.516;13.564;2023-11-21T07:20:15;100625.84;;;4.75;100.00
23473;BME280;11909;52.516;13.564;2023-11-21T07:22:44;100627.50;;;4.76;100.00
23473;BME280;11909;52.516;13.564;2023-11-21T07:25:13;100634.00;;;4.75;100.00
23473;BME280;11909;52.516;13.564;2023-11-21T07:27:41;100639.66;;;4.73;100.00
23473;BME280;11909;52.516;13.564;2023-11-21T07:30:10;100645.34;;;4.72;100.00
23473;BME280;11909;52.516;13.564;2023-11-21T07:32:40;100636.38;;;4.71;100.00
23473;BME280;11909;52.516;13.564;2023-11-21T07:35:09;100639.66;;;4.73;100.00
23473;BME280;11909;52.516;13.564;2023-11-21T07:37:37;100640.75;;;4.72;100.00
23473;BME280;11909;52.516;13.564;2023-11-21T07:40:06;100635.88;;;4.74;100.00
23473;BME280;11909;52.516;13.564;2023-11-21T07:42:36;100635.88;;;4.74;100.00
23473;BME280;11909;52.516;13.564;2023-11-21T07:45:04;100635.97;;;4.80;100.00
23473;BME280;11909;52.516;13.564;2023-11-21T07:47:33;100651.97;;;4.76;100.00
23473;BME280;11909;52.516;13.564;2023-11-21T07:50:04;100651.97;;;4.76;100.00
23473;BME280;11909;52.516;13.564;2023-11-21T07:52:34;100662.97;;;4.69;100.00
23473;BME280;11909;52.516;13.564;2023-11-21T07:55:03;100659.41;;;4.69;100.00
23473;BME280;11909;52.516;13.564;2023-11-21T07:57:32;100665.94;;;4.68;100.00
23473;BME280;11909;52.516;13.564;2023-11-21T07:59:59;100665.59;;;4.64;100.00
23473;BME280;11909;52.516;13.564;2023-11-21T08:02:28;100664.75;;;4.64;100.00
23473;BME280;11909;52.516;13.564;2023-11-21T08:04:56;100672.09;;;4.63;100.00
23473;BME280;11909;52.516;13.564;2023-11-21T08:07:25;100678.94;;;4.66;100.00
23473;BME280;11909;52.516;13.564;2023-11-21T08:09:53;100679.19;;;4.64;100.00
23473;BME280;11909;52.516;13.564;2023-11-21T08:12:23;100684.38;;;4.66;100.00
23473;BME280;11909;52.516;13.564;2023-11-21T08:14:51;100693.38;;;4.66;100.00
23473;BME280;11909;52.516;13.564;2023-11-21T08:17:19;100693.25;;;4.61;100.00
23473;BME280;11909;52.516;13.564;2023-11-21T08:19:47;100697.16;;;4.65;100.00
23473;BME280;11909;52.516;13.564;2023-11-21T08:22:16;100697.03;;;4.60;100.00
23473;BME280;11909;52.516;13.564;2023-11-21T08:24:46;100700.38;;;4.62;100.00
23473;BME280;11909;52.516;13.564;2023-11-21T08:27:14;100709.31;;;4.63;100.00
23473;BME280;11909;52.516;13.564;2023-11-21T08:29:42;100707.91;;;4.60;100.00
23473;BME280;11909;52.516;13.564;2023-11-21T08:32:10;100706.25;;;4.59;100.00
23473;BME280;11909;52.516;13.564;2023-11-21T08:34:37;100708.53;;;4.62;100.00
23473;BME280;11909;52.516;13.564;2023-11-21T08:37:07;100708.53;;;4.62;100.00
23473;BME280;11909;52.516;13.564;2023-11-21T08:39:36;100701.06;;;4.57;100.00
23473;BME280;11909;52.516;13.564;2023-11-21T08:42:06;100710.00;;;4.70;100.00
23473;BME280;11909;52.516;13.564;2023-11-21T08:44:34;100714.75;;;4.63;100.00
23473;BME280;11909;52.516;13.564;2023-11-21T08:47:03;100716.06;;;4.60;100.00
23473;BME280;11909;52.516;13.564;2023-11-21T08:49:34;100715.00;;;4.61;100.00
23473;BME280;11909;52.516;13.564;2023-11-21T08:52:02;100723.50;;;4.65;100.00
23473;BME280;11909;52.516;13.564;2023-11-21T08:54:31;100727.53;;;4.62;100.00
23473;BME280;11909;52.516;13.564;2023-11-21T08:57:01;100737.34;;;4.63;100.00
23473;BME280;11909;52.516;13.564;2023-11-21T08:59:30;100745.97;;;4.60;100.00
23473;BME280;11909;52.516;13.564;2023-11-21T09:01:58;100743.41;;;4.53;100.00
23473;BME280;11909;52.516;13.564;2023-11-21T09:04:26;100745.41;;;4.46;100.00
23473;BME280;11909;52.516;13.564;2023-11-21T09:06:54;100752.03;;;4.50;100.00
23473;BME280;11909;52.516;13.564;2023-11-21T09:09:22;100758.38;;;4.56;100.00
23473;BME280;11909;52.516;13.564;2023-11-21T09:11:51;100759.72;;;4.53;100.00
23473;BME280;11909;52.516;13.564;2023-11-21T09:14:19;100773.16;;;4.48;100.00
23473;BME280;11909;52.516;13.564;2023-11-21T09:16:48;100777.53;;;4.49;100.00
23473;BME280;11909;52.516;13.564;2023-11-21T09:19:17;100767.28;;;4.51;100.00
23473;BME280;11909;52.516;13.564;2023-11-21T09:21:45;100776.81;;;4.54;100.00
23473;BME280;11909;52.516;13.564;2023-11-21T09:24:13;100774.94;;;4.54;100.00
23473;BME280;11909;52.516;13.564;2023-11-21T09:26:41;100783.31;;;4.53;100.00
23473;BME280;11909;52.516;13.564;2023-11-21T09:29:09;100793.03;;;4.49;100.00
23473;BME280;11909;52.516;13.564;2023-11-21T09:31:37;100789.72;;;4.47;100.00
23473;BME280;11909;52.516;13.564;2023-11-21T09:34:06;100793.50;;;4.45;100.00
23473;BME280;11909;52.516;13.564;2023-11-21T09:36:34;100797.28;;;4.44;100.00
23473;BME280;11909;52.516;13.564;2023-11-21T09:39:02;100795.16;;;4.47;100.00
23473;BME280;11909;52.516;13.564;2023-11-21T09:41:36;100789.72;;;4.47;100.00
23473;BME280;11909;52.516;13.564;2023-11-21T09:44:08;100804.38;;;4.45;100.00
23473;BME280;11909;52.516;13.564;2023-11-21T09:46:40;100802.16;;;4.42;100.00
23473;BME280;11909;52.516;13.564;2023-11-21T09:49:11;100803.69;;;4.38;100.00
23473;BME280;11909;52.516;13.564;2023-11-21T09:51:42;100803.69;;;4.38;100.00
23473;BME280;11909;52.516;13.564;2023-11-21T09:54:11;100817.28;;;4.38;100.00
23473;BME280;11909;52.516;13.564;2023-11-21T09:56:40;100807.44;;;4.37;100.00
23473;BME280;11909;52.516;13.564;2023-11-21T09:59:13;100815.38;;;4.39;100.00
23473;BME280;11909;52.516;13.564;2023-11-21T10:01:42;100817.88;;;4.40;100.00
23473;BME280;11909;52.516;13.564;2023-11-21T10:04:13;100815.72;;;4.42;100.00
23473;BME280;11909;52.516;13.564;2023-11-21T10:06:43;100823.88;;;4.42;100.00
23473;BME280;11909;52.516;13.564;2023-11-21T10:09:13;100816.91;;;4.35;100.00
23473;BME280;11909;52.516;13.564;2023-11-21T10:11:42;100815.84;;;4.36;100.00
23473;BME280;11909;52.516;13.564;2023-11-21T10:14:10;100812.44;;;4.40;100.00
23473;BME280;11909;52.516;13.564;2023-11-21T10:16:41;100813.72;;;4.38;100.00
23473;BME280;11909;52.516;13.564;2023-11-21T10:19:14;100813.50;;;4.27;100.00
23473;BME280;11909;52.516;13.564;2023-11-21T10:21:43;100812.66;;;4.27;100.00
23473;BME280;11909;52.516;13.564;2023-11-21T10:24:11;100808.50;;;4.24;100.00
23473;BME280;11909;52.516;13.564;2023-11-21T10:26:39;100814.78;;;4.25;100.00
23473;BME280;11909;52.516;13.564;2023-11-21T10:29:18;100819.97;;;4.26;100.00
23473;BME280;11909;52.516;13.564;2023-11-21T10:31:49;100817.25;;;4.26;100.00
23473;BME280;11909;52.516;13.564;2023-11-21T10:34:20;100823.31;;;4.28;100.00
23473;BME280;11909;52.516;13.564;2023-11-21T10:36:48;100827.88;;;4.28;100.00
23473;BME280;11909;52.516;13.564;2023-11-21T10:39:17;100821.41;;;4.29;100.00
23473;BME280;11909;52.516;13.564;2023-11-21T10:41:46;100836.03;;;4.28;100.00
23473;BME280;11909;52.516;13.564;2023-11-21T10:44:15;100837.81;;;4.22;100.00
23473;BME280;11909;52.516;13.564;2023-11-21T10:46:48;100839.34;;;4.18;100.00
23473;BME280;11909;52.516;13.564;2023-11-21T10:49:18;100847.50;;;4.18;100.00
23473;BME280;11909;52.516;13.564;2023-11-21T10:51:47;100843.38;;;4.15;100.00
23473;BME280;11909;52.516;13.564;2023-11-21T10:54:18;100845.84;;;4.17;100.00
23473;BME280;11909;52.516;13.564;2023-11-21T10:56:48;100845.47;;;4.13;100.00
23473;BME280;11909;52.516;13.564;2023-11-21T10:59:18;100845.13;;;4.10;100.00
23473;BME280;11909;52.516;13.564;2023-11-21T11:01:47;100853.75;;;4.07;100.00
23473;BME280;11909;52.516;13.564;2023-11-21T11:04:19;100851.47;;;4.04;100.00
23473;BME280;11909;52.516;13.564;2023-11-21T11:06:53;100846.66;;;4.06;100.00
23473;BME280;11909;52.516;13.564;2023-11-21T11:09:23;100855.41;;;4.08;100.00
23473;BME280;11909;52.516;13.564;2023-11-21T11:11:51;100853.50;;;4.08;100.00
23473;BME280;11909;52.516;13.564;2023-11-21T11:14:20;100855.63;;;4.06;100.00
23473;BME280;11909;52.516;13.564;2023-11-21T11:16:53;100858.47;;;4.11;100.00
23473;BME280;11909;52.516;13.564;2023-11-21T11:19:22;100851.16;;;4.12;100.00
23473;BME280;11909;52.516;13.564;2023-11-21T11:22:00;100857.19;;;4.14;100.00
23473;BME280;11909;52.516;13.564;2023-11-21T11:24:59;100858.47;;;4.11;100.00
23473;BME280;11909;52.516;13.564;2023-11-21T11:27:39;100863.56;;;4.08;100.00
23473;BME280;11909;52.516;13.564;2023-11-21T11:30:17;100877.00;;;4.14;100.00
23473;BME280;11909;52.516;13.564;2023-11-21T11:32:55;100876.78;;;4.16;100.00
23473;BME280;11909;52.516;13.564;2023-11-21T11:35:32;100898.03;;;4.07;100.00
23473;BME280;11909;52.516;13.564;2023-11-21T11:38:02;100890.84;;;4.13;100.00
23473;BME280;11909;52.516;13.564;2023-11-21T11:40:41;100892.50;;;4.14;100.00
23473;BME280;11909;52.516;13.564;2023-11-21T11:43:09;100899.34;;;4.16;100.00
23473;BME280;11909;52.516;13.564;2023-11-21T11:45:37;100908.56;;;4.15;100.00
23473;BME280;11909;52.516;13.564;2023-11-21T11:48:08;100917.31;;;4.18;100.00
23473;BME280;11909;52.516;13.564;2023-11-21T11:50:53;100911.50;;;4.14;100.00
23473;BME280;11909;52.516;13.564;2023-11-21T11:53:35;100920.25;;;4.16;100.00
23473;BME280;11909;52.516;13.564;2023-11-21T11:56:26;100926.75;;;4.15;100.00
23473;BME280;11909;52.516;13.564;2023-11-21T11:58:56;100925.78;;;4.09;100.00
23473;BME280;11909;52.516;13.564;2023-11-21T12:01:25;100930.75;;;4.12;100.00
23473;BME280;11909;52.516;13.564;2023-11-21T12:04:24;100928.53;;;4.21;100.00
23473;BME280;11909;52.516;13.564;2023-11-21T12:07:02;100930.91;;;4.18;100.00
23473;BME280;11909;52.516;13.564;2023-11-21T12:09:31;100938.44;;;4.15;100.00
23473;BME280;11909;52.516;13.564;2023-11-21T12:12:02;100945.06;;;4.20;100.00
23473;BME280;11909;52.516;13.564;2023-11-21T12:14:30;100951.19;;;4.15;100.00
23473;BME280;11909;52.516;13.564;2023-11-21T12:16:58;100953.22;;;4.20;100.00
23473;BME280;11909;52.516;13.564;2023-11-21T12:19:27;100952.97;;;4.21;100.00
23473;BME280;11909;52.516;13.564;2023-11-21T12:21:55;100958.50;;;4.14;100.00
23473;BME280;11909;52.516;13.564;2023-11-21T12:24:23;100958.97;;;4.11;100.00
23473;BME280;11909;52.516;13.564;2023-11-21T12:26:52;100963.34;;;4.12;100.00
23473;BME280;11909;52.516;13.564;2023-11-21T12:29:20;100968.63;;;4.07;100.00
23473;BME280;11909;52.516;13.564;2023-11-21T12:31:49;100977.72;;;4.01;100.00
23473;BME280;11909;52.516;13.564;2023-11-21T12:34:17;100970.53;;;4.07;100.00
23473;BME280;11909;52.516;13.564;2023-11-21T12:36:45;100972.66;;;4.05;100.00
23473;BME280;11909;52.516;13.564;2023-11-21T12:39:13;100970.78;;;4.17;100.00
23473;BME280;11909;52.516;13.564;2023-11-21T12:41:41;100973.59;;;4.10;100.00
23473;BME280;11909;52.516;13.564;2023-11-21T12:44:12;100974.53;;;4.04;100.00
23473;BME280;11909;52.516;13.564;2023-11-21T12:46:42;100979.84;;;3.99;100.00
23473;BME280;11909;52.516;13.564;2023-11-21T12:49:12;100971.09;;;3.97;100.00
23473;BME280;11909;52.516;13.564;2023-11-21T12:51:45;100972.41;;;4.06;100.00